createdAt,value
2018-02-15T00:03:07.743Z,12.37
2018-02-15T00:08:10.855Z,12.63
2018-02-15T00:13:13.981Z,12.67
2018-02-15T00:18:17.079Z,11.87
2018-02-15T00:23:20.207Z,11.23
2018-02-15T00:28:24.090Z,12.13
2018-02-15T00:33:27.595Z,11.40
2018-02-15T00:38:31.500Z,11.80
2018-02-15T00:43:35.424Z,11.80
2018-02-15T00:48:38.996Z,10.83
2018-02-15T00:53:42.070Z,12.23
2018-02-15T00:58:45.161Z,11.13
2018-02-15T01:03:49.595Z,11.67
2018-02-15T01:08:53.446Z,12.20
2018-02-15T01:13:56.524Z,12.33
2018-02-15T01:18:59.992Z,11.43
2018-02-15T01:24:04.200Z,12.33
2018-02-15T01:29:08.046Z,11.97
2018-02-15T01:34:11.123Z,12.60
2018-02-15T01:39:14.206Z,12.23
2018-02-15T01:44:18.634Z,11.80
2018-02-15T01:49:22.486Z,11.75
2018-02-15T01:54:25.559Z,12.17
2018-02-15T01:59:30.147Z,11.83
2018-02-15T02:04:34.587Z,12.00
2018-02-15T02:09:38.055Z,12.13
2018-02-15T02:14:41.150Z,12.30
2018-02-15T02:19:44.227Z,11.97
2018-02-15T02:24:47.316Z,12.57
2018-02-15T02:29:51.751Z,12.70
2018-02-15T02:34:56.334Z,12.77
2018-02-15T02:40:00.184Z,12.33
2018-02-15T02:45:03.267Z,12.47
2018-02-15T02:50:06.339Z,12.93
2018-02-15T02:55:10.196Z,12.57
2018-02-15T03:00:13.271Z,13.10
2018-02-15T03:05:17.711Z,11.67
2018-02-15T03:10:22.299Z,12.48
2018-02-15T03:15:25.401Z,12.03
2018-02-15T03:20:29.235Z,12.23
2018-02-15T03:25:32.312Z,13.07
2018-02-15T03:30:36.197Z,12.80
2018-02-15T03:35:39.670Z,12.87
2018-02-15T03:40:43.537Z,13.63
2018-02-15T03:45:47.973Z,13.33
2018-02-15T03:50:52.418Z,13.37
2018-02-15T03:55:56.866Z,13.53
2018-02-15T04:01:00.346Z,14.30
2018-02-15T04:06:04.568Z,13.53
2018-02-15T04:11:08.433Z,15.27
2018-02-15T04:16:12.676Z,16.00
2018-02-15T04:21:17.117Z,17.10
2018-02-15T04:26:20.634Z,17.87
2018-02-15T04:31:25.032Z,18.03
2018-02-15T04:36:29.480Z,19.60
2018-02-15T04:41:32.556Z,20.40
2018-02-15T04:46:36.427Z,22.50
2018-02-15T04:51:40.644Z,26.13
2018-02-15T04:56:44.515Z,25.30
2018-02-15T05:01:49.033Z,25.87
2018-02-15T05:06:53.473Z,27.60
2018-02-15T05:11:57.323Z,30.43
2018-02-15T05:17:01.758Z,29.02
2018-02-15T05:22:04.836Z,28.97
2018-02-15T05:27:10.394Z,29.70
2018-02-15T05:32:14.999Z,30.77
2018-02-15T05:37:18.082Z,30.33
2018-02-15T05:42:21.159Z,31.37
2018-02-15T05:47:27.718Z,30.33
2018-02-15T05:52:32.314Z,32.38
2018-02-15T05:57:35.790Z,33.10
2018-02-15T06:02:39.646Z,28.77
2018-02-15T06:07:44.084Z,31.53
2018-02-15T06:12:47.163Z,31.17
2018-02-15T06:17:50.646Z,30.27
2018-02-15T06:22:54.863Z,30.00
2018-02-15T06:27:58.014Z,28.57
2018-02-15T06:33:02.440Z,25.77
2018-02-15T06:38:05.506Z,27.53
2018-02-15T06:43:08.586Z,26.27
2018-02-15T06:48:13.022Z,25.47
2018-02-15T06:53:17.486Z,26.50
2018-02-15T06:58:20.956Z,23.20
2018-02-15T07:03:25.546Z,22.43
2018-02-15T07:08:29.771Z,21.77
2018-02-15T07:13:34.363Z,22.10
2018-02-15T07:18:38.793Z,18.80
2018-02-15T07:23:41.891Z,19.00
2018-02-15T07:28:44.983Z,19.57
2018-02-15T07:33:48.823Z,20.00
2018-02-15T07:38:52.673Z,19.67
2018-02-15T07:43:57.098Z,20.10
2018-02-15T07:49:01.539Z,20.13
2018-02-15T07:54:04.613Z,19.83
2018-02-15T07:59:07.708Z,21.43
2018-02-15T08:04:12.192Z,21.33
2018-02-15T08:09:16.031Z,21.70
2018-02-15T08:14:19.108Z,23.73
2018-02-15T08:19:22.207Z,23.25
2018-02-15T08:24:25.295Z,23.27
2018-02-15T08:29:28.774Z,23.00
2018-02-15T08:34:32.255Z,24.07
2018-02-15T08:39:35.727Z,22.30
2018-02-15T08:44:39.942Z,22.07
2018-02-15T08:49:43.795Z,21.80
2018-02-15T08:54:46.876Z,22.57
2018-02-15T08:59:50.720Z,20.50
2018-02-15T09:04:55.153Z,21.70
2018-02-15T09:09:58.619Z,20.27
2018-02-15T09:15:01.708Z,20.87
2018-02-15T09:20:04.781Z,21.73
2018-02-15T09:25:08.623Z,22.83
2018-02-15T09:30:13.062Z,22.27
2018-02-15T09:35:16.150Z,24.27
2018-02-15T09:40:20.582Z,22.17
2018-02-15T09:45:24.056Z,19.87
2018-02-15T09:50:27.151Z,21.13
2018-02-15T09:55:30.228Z,18.87
2018-02-15T10:00:34.075Z,21.87
2018-02-15T10:05:37.157Z,20.93
2018-02-15T10:10:41.013Z,21.43
2018-02-15T10:15:44.086Z,20.83
2018-02-15T10:20:48.520Z,21.77
2018-02-15T10:25:51.990Z,21.30
2018-02-15T10:30:55.075Z,19.60
2018-02-15T10:35:58.914Z,20.80
2018-02-15T10:41:01.990Z,18.03
2018-02-15T10:46:05.066Z,18.93
2018-02-15T10:51:08.197Z,19.93
2018-02-15T10:56:12.583Z,20.80
2018-02-15T11:01:21.971Z,20.17
2018-02-15T11:06:25.440Z,19.17
2018-02-15T11:11:28.523Z,17.87
2018-02-15T11:16:31.994Z,16.47
2018-02-15T11:21:35.078Z,16.47
2018-02-15T11:26:38.151Z,15.83
2018-02-15T11:31:41.227Z,14.27
2018-02-15T11:36:44.310Z,13.97
2018-02-15T11:41:47.387Z,16.23
2018-02-15T11:46:51.230Z,14.73
2018-02-15T11:51:54.323Z,16.53
2018-02-15T11:56:57.394Z,14.50
2018-02-15T12:02:02.063Z,14.98
2018-02-15T12:07:05.562Z,15.63
2018-02-15T12:12:11.118Z,14.77
2018-02-15T12:17:14.578Z,14.90
2018-02-15T12:22:18.804Z,14.50
2018-02-15T12:27:21.876Z,13.87
2018-02-15T12:32:26.316Z,13.63
2018-02-15T12:37:30.733Z,13.70
2018-02-15T12:42:35.354Z,14.73
2018-02-15T12:47:39.786Z,14.00
2018-02-15T12:52:43.637Z,11.83
2018-02-15T12:57:47.878Z,11.57
2018-02-15T13:02:52.470Z,11.00
2018-02-15T13:07:55.559Z,10.50
2018-02-15T13:13:16.570Z,10.23
2018-02-15T13:18:20.422Z,10.43
2018-02-15T13:23:23.533Z,10.83
2018-02-15T13:28:38.753Z,9.43
2018-02-15T13:33:42.586Z,9.73
2018-02-15T13:38:45.695Z,8.97
2018-02-15T13:43:49.159Z,9.43
2018-02-15T13:48:52.615Z,9.63
2018-02-15T13:53:55.746Z,10.63
2018-02-15T13:58:58.820Z,9.20
2018-02-15T14:04:02.710Z,10.30
2018-02-15T14:09:05.742Z,9.43
2018-02-15T14:14:08.815Z,9.37
2018-02-15T14:19:13.259Z,10.00
2018-02-15T14:24:16.751Z,9.77
2018-02-15T14:29:20.641Z,9.83
2018-02-15T14:34:25.084Z,8.83
2018-02-15T14:39:28.146Z,8.70
2018-02-15T14:44:31.615Z,9.17
2018-02-15T14:49:34.694Z,8.77
2018-02-15T14:54:37.766Z,8.93
2018-02-15T14:59:42.949Z,7.70
2018-02-15T15:04:46.039Z,7.97
2018-02-15T15:09:49.496Z,9.23
2018-02-15T15:14:52.974Z,9.43
2018-02-15T15:19:56.815Z,9.93
2018-02-15T15:24:59.903Z,15.93
2018-02-15T15:30:04.350Z,16.33
2018-02-15T15:35:07.427Z,16.93
2018-02-15T15:40:10.894Z,16.48
2018-02-15T15:45:13.965Z,17.53
2018-02-15T15:50:17.806Z,15.90
2018-02-15T15:55:20.899Z,16.47
2018-02-15T16:00:24.777Z,15.43
2018-02-15T16:05:27.838Z,16.03
2018-02-15T16:10:32.062Z,15.20
2018-02-15T16:15:36.294Z,14.43
2018-02-15T16:20:40.738Z,13.43
2018-02-15T16:25:44.249Z,14.20
2018-02-15T16:30:48.381Z,15.20
2018-02-15T16:35:52.831Z,13.70
2018-02-15T16:40:56.298Z,13.00
2018-02-15T16:45:59.362Z,9.67
2018-02-15T16:51:03.214Z,11.47
2018-02-15T16:56:06.293Z,10.33
2018-02-15T17:01:10.874Z,10.47
2018-02-15T17:06:15.015Z,8.60
2018-02-15T17:11:18.481Z,7.67
2018-02-15T17:16:22.278Z,7.17
2018-02-15T17:21:26.120Z,8.20
2018-02-15T17:26:30.525Z,8.60
2018-02-15T17:31:34.747Z,13.40
2018-02-15T17:36:37.834Z,15.53
2018-02-15T17:41:40.931Z,11.70
2018-02-15T17:46:45.366Z,12.97
2018-02-15T17:51:49.363Z,12.07
2018-02-15T17:56:54.698Z,11.13
2018-02-15T18:01:58.123Z,12.70
2018-02-15T18:07:02.357Z,11.70
2018-02-15T18:12:06.556Z,13.30
2018-02-15T18:17:11.855Z,11.90
2018-02-15T18:22:16.968Z,12.07
2018-02-15T18:27:21.402Z,10.23
2018-02-15T18:32:24.507Z,12.17
2018-02-15T18:37:28.355Z,10.20
2018-02-15T18:42:31.427Z,9.93
2018-02-15T18:47:34.535Z,8.93
2018-02-15T18:52:37.626Z,8.67
2018-02-15T18:57:42.050Z,14.23
2018-02-15T19:02:45.518Z,13.43
2018-02-15T19:07:49.384Z,14.17
2018-02-15T19:12:53.614Z,18.42
2018-02-15T19:17:56.686Z,14.97
2018-02-15T19:22:59.770Z,14.30
2018-02-15T19:28:03.697Z,15.27
2018-02-15T19:33:07.883Z,14.93
2018-02-15T19:38:11.757Z,15.90
2018-02-15T19:43:14.854Z,15.37
2018-02-15T19:48:19.303Z,15.30
2018-02-15T19:53:31.290Z,17.07
2018-02-15T19:58:35.866Z,17.17
2018-02-15T20:03:39.468Z,17.70
2018-02-15T20:08:45.007Z,15.82
2018-02-15T20:13:48.855Z,14.90
2018-02-15T20:18:52.742Z,14.53
2018-02-15T20:23:55.814Z,16.97
2018-02-15T20:28:59.654Z,15.87
2018-02-15T20:34:03.506Z,17.47
2018-02-15T20:39:12.487Z,16.87
2018-02-15T20:44:15.811Z,16.10
2018-02-15T20:49:24.632Z,14.47
2018-02-15T20:54:33.976Z,15.30
2018-02-15T20:59:37.059Z,15.27
2018-02-15T21:04:40.173Z,17.27
2018-02-15T21:09:43.231Z,15.47
2018-02-15T21:14:47.081Z,17.70
2018-02-15T21:19:50.166Z,18.10
2018-02-15T21:24:53.282Z,15.97
2018-02-15T21:29:56.431Z,16.53
2018-02-15T21:35:01.200Z,15.70
2018-02-15T21:40:05.074Z,15.40
2018-02-15T21:45:08.270Z,15.40
2018-02-15T21:50:11.531Z,20.93
2018-02-15T21:55:17.525Z,25.77
2018-02-15T22:00:20.754Z,22.27
2018-02-15T22:05:24.750Z,22.87
2018-02-15T22:10:28.586Z,18.07
2018-02-15T22:15:31.694Z,19.97
2018-02-15T22:20:36.137Z,20.43
2018-02-15T22:25:40.091Z,22.67
2018-02-15T22:30:44.004Z,19.43
2018-02-15T22:35:47.452Z,25.87
2018-02-15T22:40:50.554Z,23.87
2018-02-15T22:45:55.014Z,19.13
2018-02-15T22:50:59.639Z,17.27
2018-02-15T22:56:04.163Z,15.75
2018-02-15T23:01:07.718Z,17.17
2018-02-15T23:06:10.884Z,17.13
2018-02-15T23:11:14.050Z,19.73
2018-02-15T23:16:18.292Z,18.77
2018-02-15T23:21:22.146Z,21.37
2018-02-15T23:26:26.370Z,24.10
2018-02-15T23:31:29.830Z,22.90
2018-02-15T23:36:33.303Z,19.00
2018-02-15T23:41:38.285Z,18.00
2018-02-15T23:46:41.410Z,17.37
2018-02-15T23:51:45.250Z,18.23
2018-02-15T23:56:49.001Z,19.77
